Anoka, Minnesota
Current Conditions -  °F | °C
As of 3:45 PM on Friday 19 Dec 2014 (Local Time) from KANE Reporting Station
Haze Haze  
Wind Chill: -7°   Ceiling: 1200
Heat Index: -2°   Visibility: 5mi
Dew Point: -3°   Wind: 9mph
Humidity: 93%   Direction: 130°SE
Pressure: 30.18"   Gusts: NA
Location:  45.2°N, 93.39°W
Report Text: KANE 192145Z 13008KT 5SM BR BKN012 OVC025 M02/M03 A3018
Loading
Personal Weather Stations






























Interactive Weather Map New forecast layout! Learn more

10-Day Weather Forecast

Advertisements
Track Severe Weather on mobile